sensor_id;sensor_type;location;lat;lon;timestamp;P1;durP1;ratioP1;P2;durP2;ratioP2
7683;SDS011;3884;48.616;12.872;2022-12-18T00:00:57;81.68;;;42.33;;
7683;SDS011;3884;48.616;12.872;2022-12-18T00:03:26;79.72;;;42.00;;
7683;SDS011;3884;48.616;12.872;2022-12-18T00:05:52;87.28;;;43.92;;
7683;SDS011;3884;48.616;12.872;2022-12-18T00:08:19;80.22;;;42.33;;
7683;SDS011;3884;48.616;12.872;2022-12-18T00:10:46;79.80;;;42.03;;
7683;SDS011;3884;48.616;12.872;2022-12-18T00:13:13;81.05;;;41.05;;
7683;SDS011;3884;48.616;12.872;2022-12-18T00:15:40;78.55;;;41.70;;
7683;SDS011;3884;48.616;12.872;2022-12-18T00:18:07;73.65;;;39.63;;
7683;SDS011;3884;48.616;12.872;2022-12-18T00:20:39;69.68;;;37.38;;
7683;SDS011;3884;48.616;12.872;2022-12-18T00:23:06;72.15;;;38.38;;
7683;SDS011;3884;48.616;12.872;2022-12-18T00:25:34;67.28;;;38.15;;
7683;SDS011;3884;48.616;12.872;2022-12-18T00:28:01;73.50;;;39.40;;
7683;SDS011;3884;48.616;12.872;2022-12-18T00:30:29;69.47;;;37.45;;
7683;SDS011;3884;48.616;12.872;2022-12-18T00:32:57;70.55;;;36.75;;
7683;SDS011;3884;48.616;12.872;2022-12-18T00:35:24;71.22;;;37.58;;
7683;SDS011;3884;48.616;12.872;2022-12-18T00:37:53;74.20;;;37.65;;
7683;SDS011;3884;48.616;12.872;2022-12-18T00:40:21;72.97;;;38.92;;
7683;SDS011;3884;48.616;12.872;2022-12-18T00:42:48;67.85;;;38.13;;
7683;SDS011;3884;48.616;12.872;2022-12-18T00:45:23;74.65;;;39.65;;
7683;SDS011;3884;48.616;12.872;2022-12-18T00:47:51;71.18;;;37.70;;
7683;SDS011;3884;48.616;12.872;2022-12-18T00:50:18;77.15;;;40.45;;
7683;SDS011;3884;48.616;12.872;2022-12-18T00:52:46;71.47;;;37.55;;
7683;SDS011;3884;48.616;12.872;2022-12-18T00:55:15;67.57;;;36.70;;
7683;SDS011;3884;48.616;12.872;2022-12-18T00:57:42;68.35;;;37.50;;
7683;SDS011;3884;48.616;12.872;2022-12-18T01:00:11;70.45;;;39.30;;
7683;SDS011;3884;48.616;12.872;2022-12-18T01:02:40;75.05;;;39.63;;
7683;SDS011;3884;48.616;12.872;2022-12-18T01:05:09;72.95;;;38.92;;
7683;SDS011;3884;48.616;12.872;2022-12-18T01:07:37;71.43;;;39.88;;
7683;SDS011;3884;48.616;12.872;2022-12-18T01:10:05;75.32;;;38.97;;
7683;SDS011;3884;48.616;12.872;2022-12-18T01:12:35;76.85;;;40.50;;
7683;SDS011;3884;48.616;12.872;2022-12-18T01:15:03;76.07;;;40.47;;
7683;SDS011;3884;48.616;12.872;2022-12-18T01:17:31;72.40;;;39.95;;
7683;SDS011;3884;48.616;12.872;2022-12-18T01:19:59;70.47;;;38.97;;
7683;SDS011;3884;48.616;12.872;2022-12-18T01:22:27;71.70;;;38.58;;
7683;SDS011;3884;48.616;12.872;2022-12-18T01:24:53;70.53;;;38.03;;
7683;SDS011;3884;48.616;12.872;2022-12-18T01:27:21;76.30;;;38.67;;
7683;SDS011;3884;48.616;12.872;2022-12-18T01:29:51;72.20;;;37.20;;
7683;SDS011;3884;48.616;12.872;2022-12-18T01:32:18;70.88;;;36.78;;
7683;SDS011;3884;48.616;12.872;2022-12-18T01:34:48;69.57;;;37.58;;
7683;SDS011;3884;48.616;12.872;2022-12-18T01:37:15;73.18;;;38.60;;
7683;SDS011;3884;48.616;12.872;2022-12-18T01:39:42;70.60;;;38.08;;
7683;SDS011;3884;48.616;12.872;2022-12-18T01:42:10;76.35;;;40.13;;
7683;SDS011;3884;48.616;12.872;2022-12-18T01:44:47;70.43;;;38.30;;
7683;SDS011;3884;48.616;12.872;2022-12-18T01:47:24;61.92;;;34.63;;
7683;SDS011;3884;48.616;12.872;2022-12-18T01:49:53;53.83;;;30.52;;
7683;SDS011;3884;48.616;12.872;2022-12-18T01:52:22;50.20;;;30.60;;
7683;SDS011;3884;48.616;12.872;2022-12-18T01:54:52;58.97;;;32.97;;
7683;SDS011;3884;48.616;12.872;2022-12-18T01:57:20;54.15;;;31.27;;
7683;SDS011;3884;48.616;12.872;2022-12-18T01:59:49;61.92;;;34.15;;
7683;SDS011;3884;48.616;12.872;2022-12-18T02:02:20;57.33;;;33.92;;
7683;SDS011;3884;48.616;12.872;2022-12-18T02:04:47;57.90;;;32.22;;
7683;SDS011;3884;48.616;12.872;2022-12-18T02:07:16;59.17;;;34.00;;
7683;SDS011;3884;48.616;12.872;2022-12-18T02:09:52;62.03;;;34.85;;
7683;SDS011;3884;48.616;12.872;2022-12-18T02:12:26;63.80;;;36.17;;
7683;SDS011;3884;48.616;12.872;2022-12-18T02:14:58;62.10;;;36.78;;
7683;SDS011;3884;48.616;12.872;2022-12-18T02:17:35;72.72;;;39.25;;
7683;SDS011;3884;48.616;12.872;2022-12-18T02:20:06;63.85;;;36.53;;
7683;SDS011;3884;48.616;12.872;2022-12-18T02:22:43;74.50;;;41.22;;
7683;SDS011;3884;48.616;12.872;2022-12-18T02:25:24;67.85;;;40.03;;
7683;SDS011;3884;48.616;12.872;2022-12-18T02:28:01;70.68;;;38.85;;
7683;SDS011;3884;48.616;12.872;2022-12-18T02:30:33;70.13;;;39.65;;
7683;SDS011;3884;48.616;12.872;2022-12-18T02:33:04;72.47;;;40.65;;
7683;SDS011;3884;48.616;12.872;2022-12-18T02:35:33;70.97;;;40.08;;
7683;SDS011;3884;48.616;12.872;2022-12-18T02:38:02;72.78;;;40.50;;
7683;SDS011;3884;48.616;12.872;2022-12-18T02:40:33;75.22;;;41.00;;
7683;SDS011;3884;48.616;12.872;2022-12-18T02:43:08;75.47;;;40.00;;
7683;SDS011;3884;48.616;12.872;2022-12-18T02:45:36;74.82;;;40.67;;
7683;SDS011;3884;48.616;12.872;2022-12-18T02:48:12;64.80;;;38.40;;
7683;SDS011;3884;48.616;12.872;2022-12-18T02:50:44;68.97;;;39.35;;
7683;SDS011;3884;48.616;12.872;2022-12-18T02:53:15;74.82;;;40.50;;
7683;SDS011;3884;48.616;12.872;2022-12-18T02:55:50;76.93;;;42.70;;
7683;SDS011;3884;48.616;12.872;2022-12-18T02:58:28;79.72;;;42.90;;
7683;SDS011;3884;48.616;12.872;2022-12-18T03:01:07;74.47;;;42.38;;
7683;SDS011;3884;48.616;12.872;2022-12-18T03:03:40;77.28;;;42.67;;
7683;SDS011;3884;48.616;12.872;2022-12-18T03:06:13;77.35;;;41.67;;
7683;SDS011;3884;48.616;12.872;2022-12-18T03:08:48;82.50;;;43.40;;
7683;SDS011;3884;48.616;12.872;2022-12-18T03:11:21;85.82;;;44.63;;
7683;SDS011;3884;48.616;12.872;2022-12-18T03:14:10;78.38;;;41.58;;
7683;SDS011;3884;48.616;12.872;2022-12-18T03:16:41;75.10;;;42.40;;
7683;SDS011;3884;48.616;12.872;2022-12-18T03:19:10;82.90;;;43.75;;
7683;SDS011;3884;48.616;12.872;2022-12-18T03:21:42;79.75;;;42.38;;
7683;SDS011;3884;48.616;12.872;2022-12-18T03:24:13;77.63;;;40.63;;
7683;SDS011;3884;48.616;12.872;2022-12-18T03:26:43;79.93;;;43.45;;
7683;SDS011;3884;48.616;12.872;2022-12-18T03:29:16;78.85;;;40.42;;
7683;SDS011;3884;48.616;12.872;2022-12-18T03:31:49;81.72;;;43.50;;
7683;SDS011;3884;48.616;12.872;2022-12-18T03:34:21;72.53;;;38.72;;
7683;SDS011;3884;48.616;12.872;2022-12-18T03:36:52;71.35;;;37.03;;
7683;SDS011;3884;48.616;12.872;2022-12-18T03:39:22;74.75;;;38.58;;
7683;SDS011;3884;48.616;12.872;2022-12-18T03:41:55;70.05;;;38.13;;
7683;SDS011;3884;48.616;12.872;2022-12-18T03:44:42;71.13;;;38.17;;
7683;SDS011;3884;48.616;12.872;2022-12-18T03:47:16;69.60;;;38.55;;
7683;SDS011;3884;48.616;12.872;2022-12-18T03:49:56;71.43;;;37.90;;
7683;SDS011;3884;48.616;12.872;2022-12-18T03:52:34;73.78;;;39.70;;
7683;SDS011;3884;48.616;12.872;2022-12-18T03:55:06;73.57;;;39.00;;
7683;SDS011;3884;48.616;12.872;2022-12-18T03:57:36;76.03;;;40.33;;
7683;SDS011;3884;48.616;12.872;2022-12-18T04:00:07;72.32;;;41.47;;
7683;SDS011;3884;48.616;12.872;2022-12-18T04:02:41;81.22;;;42.28;;
7683;SDS011;3884;48.616;12.872;2022-12-18T04:05:13;82.97;;;41.85;;
7683;SDS011;3884;48.616;12.872;2022-12-18T04:07:43;83.95;;;42.65;;
7683;SDS011;3884;48.616;12.872;2022-12-18T04:10:12;86.15;;;43.20;;
7683;SDS011;3884;48.616;12.872;2022-12-18T04:12:40;81.05;;;41.92;;
7683;SDS011;3884;48.616;12.872;2022-12-18T04:15:11;78.63;;;41.20;;
7683;SDS011;3884;48.616;12.872;2022-12-18T04:17:41;78.30;;;40.97;;
7683;SDS011;3884;48.616;12.872;2022-12-18T04:20:14;82.32;;;45.45;;
7683;SDS011;3884;48.616;12.872;2022-12-18T04:22:43;85.00;;;44.95;;
7683;SDS011;3884;48.616;12.872;2022-12-18T04:25:10;87.25;;;46.58;;
7683;SDS011;3884;48.616;12.872;2022-12-18T04:27:47;86.30;;;45.53;;
7683;SDS011;3884;48.616;12.872;2022-12-18T04:30:16;88.43;;;44.30;;
7683;SDS011;3884;48.616;12.872;2022-12-18T04:32:43;88.40;;;45.53;;
7683;SDS011;3884;48.616;12.872;2022-12-18T04:35:10;82.78;;;44.58;;
7683;SDS011;3884;48.616;12.872;2022-12-18T04:37:41;85.43;;;43.40;;
7683;SDS011;3884;48.616;12.872;2022-12-18T04:40:09;84.63;;;44.85;;
7683;SDS011;3884;48.616;12.872;2022-12-18T04:42:41;82.57;;;45.30;;
7683;SDS011;3884;48.616;12.872;2022-12-18T04:45:08;81.30;;;42.35;;
7683;SDS011;3884;48.616;12.872;2022-12-18T04:47:37;83.13;;;44.15;;
7683;SDS011;3884;48.616;12.872;2022-12-18T04:50:04;87.00;;;44.97;;
7683;SDS011;3884;48.616;12.872;2022-12-18T04:52:32;86.30;;;44.50;;
7683;SDS011;3884;48.616;12.872;2022-12-18T04:54:59;93.80;;;47.33;;
7683;SDS011;3884;48.616;12.872;2022-12-18T04:57:25;87.00;;;43.45;;
7683;SDS011;3884;48.616;12.872;2022-12-18T04:59:52;84.70;;;42.65;;
7683;SDS011;3884;48.616;12.872;2022-12-18T05:02:19;77.40;;;40.95;;
7683;SDS011;3884;48.616;12.872;2022-12-18T05:04:47;83.45;;;43.35;;
7683;SDS011;3884;48.616;12.872;2022-12-18T05:07:14;94.03;;;46.10;;
7683;SDS011;3884;48.616;12.872;2022-12-18T05:09:41;92.82;;;48.40;;
7683;SDS011;3884;48.616;12.872;2022-12-18T05:12:08;89.65;;;46.10;;
7683;SDS011;3884;48.616;12.872;2022-12-18T05:14:35;98.43;;;48.92;;
7683;SDS011;3884;48.616;12.872;2022-12-18T05:17:02;97.55;;;46.28;;
7683;SDS011;3884;48.616;12.872;2022-12-18T05:19:29;85.35;;;44.33;;
7683;SDS011;3884;48.616;12.872;2022-12-18T05:21:57;73.05;;;39.13;;
7683;SDS011;3884;48.616;12.872;2022-12-18T05:24:24;81.05;;;41.58;;
7683;SDS011;3884;48.616;12.872;2022-12-18T05:26:51;79.20;;;38.55;;
7683;SDS011;3884;48.616;12.872;2022-12-18T05:29:18;75.70;;;39.67;;
7683;SDS011;3884;48.616;12.872;2022-12-18T05:31:45;70.38;;;36.60;;
7683;SDS011;3884;48.616;12.872;2022-12-18T05:34:12;69.45;;;37.55;;
7683;SDS011;3884;48.616;12.872;2022-12-18T05:36:39;73.43;;;38.15;;
7683;SDS011;3884;48.616;12.872;2022-12-18T05:39:07;69.38;;;36.85;;
7683;SDS011;3884;48.616;12.872;2022-12-18T05:41:34;74.63;;;37.67;;
7683;SDS011;3884;48.616;12.872;2022-12-18T05:44:01;75.95;;;40.92;;
7683;SDS011;3884;48.616;12.872;2022-12-18T05:46:28;78.15;;;41.40;;
7683;SDS011;3884;48.616;12.872;2022-12-18T05:48:58;72.35;;;38.88;;
7683;SDS011;3884;48.616;12.872;2022-12-18T05:51:25;75.07;;;38.60;;
7683;SDS011;3884;48.616;12.872;2022-12-18T05:53:52;74.70;;;39.83;;
7683;SDS011;3884;48.616;12.872;2022-12-18T05:56:21;85.75;;;43.00;;
7683;SDS011;3884;48.616;12.872;2022-12-18T05:58:50;88.57;;;43.90;;
7683;SDS011;3884;48.616;12.872;2022-12-18T06:01:21;82.55;;;43.38;;
7683;SDS011;3884;48.616;12.872;2022-12-18T06:03:49;88.13;;;42.80;;
7683;SDS011;3884;48.616;12.872;2022-12-18T06:06:17;93.50;;;43.85;;
7683;SDS011;3884;48.616;12.872;2022-12-18T06:08:46;85.60;;;45.13;;
7683;SDS011;3884;48.616;12.872;2022-12-18T06:11:13;83.38;;;44.40;;
7683;SDS011;3884;48.616;12.872;2022-12-18T06:13:44;79.53;;;42.70;;
7683;SDS011;3884;48.616;12.872;2022-12-18T06:16:11;81.55;;;42.03;;
7683;SDS011;3884;48.616;12.872;2022-12-18T06:18:38;83.03;;;43.13;;
7683;SDS011;3884;48.616;12.872;2022-12-18T06:21:05;78.72;;;40.65;;
7683;SDS011;3884;48.616;12.872;2022-12-18T06:23:32;79.78;;;40.80;;
7683;SDS011;3884;48.616;12.872;2022-12-18T06:26:02;72.55;;;38.08;;
7683;SDS011;3884;48.616;12.872;2022-12-18T06:28:30;68.45;;;36.38;;
7683;SDS011;3884;48.616;12.872;2022-12-18T06:30:58;64.10;;;35.22;;
7683;SDS011;3884;48.616;12.872;2022-12-18T06:33:26;62.58;;;35.75;;
7683;SDS011;3884;48.616;12.872;2022-12-18T06:35:54;65.10;;;35.97;;
7683;SDS011;3884;48.616;12.872;2022-12-18T06:38:25;59.88;;;33.67;;
7683;SDS011;3884;48.616;12.872;2022-12-18T06:40:52;65.20;;;36.40;;
7683;SDS011;3884;48.616;12.872;2022-12-18T06:43:19;60.17;;;34.85;;
7683;SDS011;3884;48.616;12.872;2022-12-18T06:45:46;60.70;;;34.30;;
7683;SDS011;3884;48.616;12.872;2022-12-18T06:48:19;59.53;;;34.80;;
7683;SDS011;3884;48.616;12.872;2022-12-18T06:50:46;58.08;;;33.05;;
7683;SDS011;3884;48.616;12.872;2022-12-18T06:53:13;59.17;;;31.95;;
7683;SDS011;3884;48.616;12.872;2022-12-18T06:55:40;61.22;;;33.17;;
7683;SDS011;3884;48.616;12.872;2022-12-18T06:58:07;58.97;;;32.53;;
7683;SDS011;3884;48.616;12.872;2022-12-18T07:00:34;61.38;;;34.45;;
7683;SDS011;3884;48.616;12.872;2022-12-18T07:03:01;64.40;;;35.08;;
7683;SDS011;3884;48.616;12.872;2022-12-18T07:05:30;62.58;;;34.38;;
7683;SDS011;3884;48.616;12.872;2022-12-18T07:07:57;64.90;;;33.35;;
7683;SDS011;3884;48.616;12.872;2022-12-18T07:10:24;58.80;;;32.78;;
7683;SDS011;3884;48.616;12.872;2022-12-18T07:12:51;60.83;;;34.47;;
7683;SDS011;3884;48.616;12.872;2022-12-18T07:15:18;63.72;;;34.00;;
7683;SDS011;3884;48.616;12.872;2022-12-18T07:17:45;62.78;;;34.53;;
7683;SDS011;3884;48.616;12.872;2022-12-18T07:20:12;64.25;;;35.55;;
7683;SDS011;3884;48.616;12.872;2022-12-18T07:22:40;57.85;;;33.55;;
7683;SDS011;3884;48.616;12.872;2022-12-18T07:25:07;59.83;;;34.40;;
7683;SDS011;3884;48.616;12.872;2022-12-18T07:27:34;60.30;;;32.90;;
7683;SDS011;3884;48.616;12.872;2022-12-18T07:30:01;56.63;;;31.38;;
7683;SDS011;3884;48.616;12.872;2022-12-18T07:32:29;52.70;;;31.10;;
7683;SDS011;3884;48.616;12.872;2022-12-18T07:34:56;51.45;;;29.73;;
7683;SDS011;3884;48.616;12.872;2022-12-18T07:37:23;52.97;;;29.42;;
7683;SDS011;3884;48.616;12.872;2022-12-18T07:39:52;52.80;;;30.67;;
7683;SDS011;3884;48.616;12.872;2022-12-18T07:42:18;50.55;;;29.23;;
7683;SDS011;3884;48.616;12.872;2022-12-18T07:44:57;50.72;;;30.08;;
7683;SDS011;3884;48.616;12.872;2022-12-18T07:47:24;54.42;;;32.53;;
7683;SDS011;3884;48.616;12.872;2022-12-18T07:49:51;54.33;;;31.50;;
7683;SDS011;3884;48.616;12.872;2022-12-18T07:52:18;57.85;;;33.58;;
7683;SDS011;3884;48.616;12.872;2022-12-18T07:54:45;56.17;;;32.80;;
7683;SDS011;3884;48.616;12.872;2022-12-18T07:57:15;57.70;;;32.67;;
7683;SDS011;3884;48.616;12.872;2022-12-18T07:59:42;59.45;;;32.75;;
7683;SDS011;3884;48.616;12.872;2022-12-18T08:02:10;54.28;;;31.80;;
7683;SDS011;3884;48.616;12.872;2022-12-18T08:04:37;60.10;;;32.85;;
7683;SDS011;3884;48.616;12.872;2022-12-18T08:07:04;55.92;;;32.83;;
7683;SDS011;3884;48.616;12.872;2022-12-18T08:09:31;59.33;;;34.08;;
7683;SDS011;3884;48.616;12.872;2022-12-18T08:11:58;52.67;;;31.77;;
7683;SDS011;3884;48.616;12.872;2022-12-18T08:14:26;55.75;;;31.33;;
7683;SDS011;3884;48.616;12.872;2022-12-18T08:16:53;51.63;;;28.67;;
7683;SDS011;3884;48.616;12.872;2022-12-18T08:19:20;52.92;;;30.58;;
7683;SDS011;3884;48.616;12.872;2022-12-18T08:21:47;46.97;;;27.65;;
7683;SDS011;3884;48.616;12.872;2022-12-18T08:24:14;47.47;;;29.85;;
7683;SDS011;3884;48.616;12.872;2022-12-18T08:26:41;47.15;;;28.60;;
7683;SDS011;3884;48.616;12.872;2022-12-18T08:29:08;49.90;;;30.05;;
7683;SDS011;3884;48.616;12.872;2022-12-18T08:31:37;50.10;;;31.10;;
7683;SDS011;3884;48.616;12.872;2022-12-18T08:34:04;53.25;;;30.48;;
7683;SDS011;3884;48.616;12.872;2022-12-18T08:36:31;55.75;;;32.05;;
7683;SDS011;3884;48.616;12.872;2022-12-18T08:38:58;49.85;;;30.05;;
7683;SDS011;3884;48.616;12.872;2022-12-18T08:41:24;52.45;;;31.38;;
7683;SDS011;3884;48.616;12.872;2022-12-18T08:43:52;54.65;;;31.88;;
7683;SDS011;3884;48.616;12.872;2022-12-18T08:46:39;56.22;;;31.23;;
7683;SDS011;3884;48.616;12.872;2022-12-18T08:49:07;57.10;;;33.20;;
7683;SDS011;3884;48.616;12.872;2022-12-18T08:51:35;52.22;;;31.33;;
7683;SDS011;3884;48.616;12.872;2022-12-18T08:54:02;51.08;;;31.02;;
7683;SDS011;3884;48.616;12.872;2022-12-18T08:56:30;48.65;;;28.85;;
7683;SDS011;3884;48.616;12.872;2022-12-18T08:58:58;48.50;;;29.70;;
7683;SDS011;3884;48.616;12.872;2022-12-18T09:01:25;50.65;;;29.15;;
7683;SDS011;3884;48.616;12.872;2022-12-18T09:03:53;50.55;;;28.92;;
7683;SDS011;3884;48.616;12.872;2022-12-18T09:06:20;44.25;;;26.75;;
7683;SDS011;3884;48.616;12.872;2022-12-18T09:08:48;44.45;;;25.98;;
7683;SDS011;3884;48.616;12.872;2022-12-18T09:11:18;44.70;;;27.55;;
7683;SDS011;3884;48.616;12.872;2022-12-18T09:13:47;47.03;;;29.15;;
7683;SDS011;3884;48.616;12.872;2022-12-18T09:16:14;43.13;;;27.10;;
7683;SDS011;3884;48.616;12.872;2022-12-18T09:18:42;42.00;;;26.00;;
7683;SDS011;3884;48.616;12.872;2022-12-18T09:21:12;45.58;;;27.90;;
7683;SDS011;3884;48.616;12.872;2022-12-18T09:23:40;43.78;;;28.05;;
7683;SDS011;3884;48.616;12.872;2022-12-18T09:26:07;45.33;;;28.15;;
7683;SDS011;3884;48.616;12.872;2022-12-18T09:28:35;47.00;;;28.40;;
7683;SDS011;3884;48.616;12.872;2022-12-18T09:31:03;46.60;;;27.33;;
7683;SDS011;3884;48.616;12.872;2022-12-18T09:33:32;45.55;;;28.77;;
7683;SDS011;3884;48.616;12.872;2022-12-18T09:36:00;47.85;;;28.27;;
7683;SDS011;3884;48.616;12.872;2022-12-18T09:38:30;45.78;;;28.10;;
7683;SDS011;3884;48.616;12.872;2022-12-18T09:40:58;45.25;;;28.90;;
7683;SDS011;3884;48.616;12.872;2022-12-18T09:43:33;46.58;;;28.00;;
7683;SDS011;3884;48.616;12.872;2022-12-18T09:46:05;45.95;;;28.30;;
7683;SDS011;3884;48.616;12.872;2022-12-18T09:48:37;46.22;;;28.55;;
7683;SDS011;3884;48.616;12.872;2022-12-18T09:51:10;47.17;;;29.25;;
7683;SDS011;3884;48.616;12.872;2022-12-18T09:53:43;45.63;;;27.17;;
7683;SDS011;3884;48.616;12.872;2022-12-18T09:56:16;42.83;;;28.80;;
7683;SDS011;3884;48.616;12.872;2022-12-18T09:58:48;44.15;;;28.42;;
7683;SDS011;3884;48.616;12.872;2022-12-18T10:01:20;43.10;;;27.48;;
7683;SDS011;3884;48.616;12.872;2022-12-18T10:03:49;45.22;;;27.38;;
7683;SDS011;3884;48.616;12.872;2022-12-18T10:06:18;42.00;;;26.25;;
7683;SDS011;3884;48.616;12.872;2022-12-18T10:08:51;39.85;;;24.73;;
7683;SDS011;3884;48.616;12.872;2022-12-18T10:11:27;36.97;;;24.65;;
7683;SDS011;3884;48.616;12.872;2022-12-18T10:14:01;36.33;;;23.95;;
7683;SDS011;3884;48.616;12.872;2022-12-18T10:16:36;33.50;;;22.33;;
7683;SDS011;3884;48.616;12.872;2022-12-18T10:19:21;33.90;;;22.25;;
7683;SDS011;3884;48.616;12.872;2022-12-18T10:22:13;35.38;;;22.90;;
7683;SDS011;3884;48.616;12.872;2022-12-18T10:24:50;33.13;;;21.38;;
7683;SDS011;3884;48.616;12.872;2022-12-18T10:27:22;32.20;;;20.10;;
7683;SDS011;3884;48.616;12.872;2022-12-18T10:29:51;28.23;;;19.83;;
7683;SDS011;3884;48.616;12.872;2022-12-18T10:32:20;29.70;;;21.00;;
7683;SDS011;3884;48.616;12.872;2022-12-18T10:34:49;31.33;;;20.25;;
7683;SDS011;3884;48.616;12.872;2022-12-18T10:37:18;32.97;;;21.58;;
7683;SDS011;3884;48.616;12.872;2022-12-18T10:39:47;35.35;;;22.92;;
7683;SDS011;3884;48.616;12.872;2022-12-18T10:42:34;31.05;;;22.30;;
7683;SDS011;3884;48.616;12.872;2022-12-18T10:45:02;33.25;;;21.33;;
7683;SDS011;3884;48.616;12.872;2022-12-18T10:47:35;32.58;;;21.90;;
7683;SDS011;3884;48.616;12.872;2022-12-18T10:50:11;30.05;;;21.80;;
7683;SDS011;3884;48.616;12.872;2022-12-18T10:52:52;32.00;;;20.85;;
7683;SDS011;3884;48.616;12.872;2022-12-18T10:55:30;32.30;;;21.52;;
7683;SDS011;3884;48.616;12.872;2022-12-18T10:58:12;32.85;;;21.13;;
7683;SDS011;3884;48.616;12.872;2022-12-18T11:00:43;32.80;;;22.13;;
7683;SDS011;3884;48.616;12.872;2022-12-18T11:06:01;31.83;;;20.48;;
7683;SDS011;3884;48.616;12.872;2022-12-18T11:08:30;32.50;;;20.77;;
7683;SDS011;3884;48.616;12.872;2022-12-18T11:10:58;32.03;;;21.73;;
7683;SDS011;3884;48.616;12.872;2022-12-18T11:13:26;27.80;;;20.13;;
7683;SDS011;3884;48.616;12.872;2022-12-18T11:15:54;30.58;;;20.33;;
7683;SDS011;3884;48.616;12.872;2022-12-18T11:18:22;32.67;;;21.08;;
7683;SDS011;3884;48.616;12.872;2022-12-18T11:20:53;34.65;;;22.10;;
7683;SDS011;3884;48.616;12.872;2022-12-18T11:23:22;31.67;;;21.13;;
7683;SDS011;3884;48.616;12.872;2022-12-18T11:25:50;34.50;;;22.00;;
7683;SDS011;3884;48.616;12.872;2022-12-18T11:28:37;30.38;;;20.65;;
7683;SDS011;3884;48.616;12.872;2022-12-18T11:31:21;31.75;;;21.48;;
7683;SDS011;3884;48.616;12.872;2022-12-18T11:33:54;33.08;;;21.50;;
7683;SDS011;3884;48.616;12.872;2022-12-18T11:36:28;33.10;;;21.52;;
7683;SDS011;3884;48.616;12.872;2022-12-18T11:38:59;31.77;;;21.65;;
7683;SDS011;3884;48.616;12.872;2022-12-18T11:41:33;31.13;;;20.42;;
7683;SDS011;3884;48.616;12.872;2022-12-18T11:44:26;34.13;;;22.30;;
7683;SDS011;3884;48.616;12.872;2022-12-18T11:46:55;31.08;;;20.30;;
7683;SDS011;3884;48.616;12.872;2022-12-18T11:49:26;32.42;;;20.88;;
7683;SDS011;3884;48.616;12.872;2022-12-18T11:52:00;28.48;;;20.77;;
7683;SDS011;3884;48.616;12.872;2022-12-18T11:54:34;30.17;;;21.00;;
7683;SDS011;3884;48.616;12.872;2022-12-18T11:57:03;33.95;;;21.48;;
7683;SDS011;3884;48.616;12.872;2022-12-18T11:59:43;31.77;;;20.55;;
7683;SDS011;3884;48.616;12.872;2022-12-18T12:02:20;31.10;;;21.20;;
7683;SDS011;3884;48.616;12.872;2022-12-18T12:05:03;29.92;;;20.63;;
7683;SDS011;3884;48.616;12.872;2022-12-18T12:07:45;31.55;;;21.85;;
7683;SDS011;3884;48.616;12.872;2022-12-18T12:10:30;30.38;;;20.77;;
7683;SDS011;3884;48.616;12.872;2022-12-18T12:13:16;33.08;;;22.13;;
7683;SDS011;3884;48.616;12.872;2022-12-18T12:15:53;30.92;;;21.40;;
7683;SDS011;3884;48.616;12.872;2022-12-18T12:18:29;33.30;;;21.85;;
7683;SDS011;3884;48.616;12.872;2022-12-18T12:21:03;35.55;;;23.83;;
7683;SDS011;3884;48.616;12.872;2022-12-18T12:23:36;32.20;;;21.95;;
7683;SDS011;3884;48.616;12.872;2022-12-18T12:26:11;35.83;;;22.83;;
7683;SDS011;3884;48.616;12.872;2022-12-18T12:28:48;32.22;;;22.15;;
7683;SDS011;3884;48.616;12.872;2022-12-18T12:31:29;31.85;;;21.73;;
7683;SDS011;3884;48.616;12.872;2022-12-18T12:34:05;33.25;;;23.27;;
7683;SDS011;3884;48.616;12.872;2022-12-18T12:36:49;31.80;;;21.67;;
7683;SDS011;3884;48.616;12.872;2022-12-18T12:39:27;31.77;;;21.75;;
7683;SDS011;3884;48.616;12.872;2022-12-18T12:41:57;32.45;;;22.45;;
7683;SDS011;3884;48.616;12.872;2022-12-18T12:44:43;34.73;;;22.30;;
7683;SDS011;3884;48.616;12.872;2022-12-18T12:47:16;33.25;;;22.27;;
7683;SDS011;3884;48.616;12.872;2022-12-18T12:49:46;28.67;;;21.80;;
7683;SDS011;3884;48.616;12.872;2022-12-18T12:52:15;31.08;;;22.55;;
7683;SDS011;3884;48.616;12.872;2022-12-18T12:54:47;32.53;;;22.35;;
7683;SDS011;3884;48.616;12.872;2022-12-18T12:57:15;33.88;;;22.00;;
7683;SDS011;3884;48.616;12.872;2022-12-18T12:59:50;32.00;;;22.02;;
7683;SDS011;3884;48.616;12.872;2022-12-18T13:02:28;31.05;;;21.10;;
7683;SDS011;3884;48.616;12.872;2022-12-18T13:05:00;34.53;;;23.05;;
7683;SDS011;3884;48.616;12.872;2022-12-18T13:07:36;33.65;;;22.33;;
7683;SDS011;3884;48.616;12.872;2022-12-18T13:10:12;34.55;;;22.38;;
7683;SDS011;3884;48.616;12.872;2022-12-18T13:12:52;31.95;;;22.63;;
7683;SDS011;3884;48.616;12.872;2022-12-18T13:15:23;33.97;;;23.15;;
7683;SDS011;3884;48.616;12.872;2022-12-18T13:18:04;32.15;;;22.52;;
7683;SDS011;3884;48.616;12.872;2022-12-18T13:20:38;33.10;;;22.77;;
7683;SDS011;3884;48.616;12.872;2022-12-18T13:23:23;29.92;;;21.95;;
7683;SDS011;3884;48.616;12.872;2022-12-18T13:25:57;30.48;;;22.30;;
7683;SDS011;3884;48.616;12.872;2022-12-18T13:34:34;31.65;;;22.13;;
7683;SDS011;3884;48.616;12.872;2022-12-18T13:43:30;32.55;;;22.30;;
7683;SDS011;3884;48.616;12.872;2022-12-18T13:46:05;30.13;;;21.67;;
7683;SDS011;3884;48.616;12.872;2022-12-18T13:48:48;29.40;;;21.27;;
7683;SDS011;3884;48.616;12.872;2022-12-18T13:51:20;30.88;;;21.15;;
7683;SDS011;3884;48.616;12.872;2022-12-18T13:53:49;31.42;;;20.92;;
7683;SDS011;3884;48.616;12.872;2022-12-18T13:56:20;30.73;;;21.90;;
7683;SDS011;3884;48.616;12.872;2022-12-18T14:01:41;29.60;;;22.67;;
7683;SDS011;3884;48.616;12.872;2022-12-18T14:04:17;32.78;;;22.55;;
7683;SDS011;3884;48.616;12.872;2022-12-18T14:06:48;30.40;;;22.33;;
7683;SDS011;3884;48.616;12.872;2022-12-18T14:09:19;30.23;;;21.80;;
7683;SDS011;3884;48.616;12.872;2022-12-18T14:11:49;33.22;;;22.98;;
7683;SDS011;3884;48.616;12.872;2022-12-18T14:14:17;31.50;;;22.02;;
7683;SDS011;3884;48.616;12.872;2022-12-18T14:16:45;29.10;;;21.70;;
7683;SDS011;3884;48.616;12.872;2022-12-18T14:19:14;31.33;;;22.23;;
7683;SDS011;3884;48.616;12.872;2022-12-18T14:21:47;31.95;;;23.02;;
7683;SDS011;3884;48.616;12.872;2022-12-18T14:24:17;29.92;;;22.25;;
7683;SDS011;3884;48.616;12.872;2022-12-18T14:26:45;29.00;;;21.83;;
7683;SDS011;3884;48.616;12.872;2022-12-18T14:29:24;28.90;;;21.40;;
7683;SDS011;3884;48.616;12.872;2022-12-18T14:34:37;32.42;;;21.58;;
7683;SDS011;3884;48.616;12.872;2022-12-18T14:37:05;32.22;;;22.95;;
7683;SDS011;3884;48.616;12.872;2022-12-18T14:39:35;31.25;;;22.95;;
7683;SDS011;3884;48.616;12.872;2022-12-18T14:42:02;30.65;;;22.65;;
7683;SDS011;3884;48.616;12.872;2022-12-18T14:44:29;31.85;;;21.75;;
7683;SDS011;3884;48.616;12.872;2022-12-18T14:46:56;30.55;;;21.77;;
7683;SDS011;3884;48.616;12.872;2022-12-18T14:49:23;29.92;;;22.45;;
7683;SDS011;3884;48.616;12.872;2022-12-18T14:51:53;31.98;;;23.30;;
7683;SDS011;3884;48.616;12.872;2022-12-18T14:54:23;32.40;;;23.10;;
7683;SDS011;3884;48.616;12.872;2022-12-18T14:56:53;36.80;;;25.90;;
7683;SDS011;3884;48.616;12.872;2022-12-18T14:59:26;33.35;;;24.55;;
7683;SDS011;3884;48.616;12.872;2022-12-18T15:01:57;31.65;;;24.73;;
7683;SDS011;3884;48.616;12.872;2022-12-18T15:04:28;34.45;;;25.92;;
7683;SDS011;3884;48.616;12.872;2022-12-18T15:07:03;32.17;;;25.80;;
7683;SDS011;3884;48.616;12.872;2022-12-18T15:09:37;34.47;;;27.00;;
7683;SDS011;3884;48.616;12.872;2022-12-18T15:12:15;35.10;;;25.63;;
7683;SDS011;3884;48.616;12.872;2022-12-18T15:14:50;33.25;;;25.85;;